createdAt,value
2023-02-23T00:01:55.926Z,42.77
2023-02-23T00:04:23.758Z,44.77
2023-02-23T00:06:54.450Z,42.50
2023-02-23T00:09:25.059Z,42.40
2023-02-23T00:11:56.720Z,42.00
2023-02-23T00:14:28.195Z,46.20
2023-02-23T00:16:56.659Z,45.40
2023-02-23T00:19:25.276Z,49.17
2023-02-23T00:21:53.145Z,46.67
2023-02-23T00:24:21.039Z,47.30
2023-02-23T00:26:51.462Z,43.37
2023-02-23T00:29:20.770Z,49.37
2023-02-23T00:31:48.928Z,47.90
2023-02-23T00:34:17.067Z,44.77
2023-02-23T00:36:44.530Z,43.27
2023-02-23T00:39:26.903Z,46.40
2023-02-23T00:41:55.562Z,50.37
2023-02-23T00:44:23.670Z,49.57
2023-02-23T00:46:52.148Z,43.90
2023-02-23T00:49:20.712Z,51.80
2023-02-23T00:51:48.244Z,49.73
2023-02-23T00:54:16.322Z,46.37
2023-02-23T00:56:45.576Z,42.40
2023-02-23T00:59:13.415Z,48.87
2023-02-23T01:01:45.153Z,52.53
2023-02-23T01:04:13.194Z,44.60
2023-02-23T01:06:41.667Z,53.93
2023-02-23T01:09:14.619Z,45.40
2023-02-23T01:11:42.424Z,54.70
2023-02-23T01:14:11.169Z,52.40
2023-02-23T01:16:39.200Z,52.33
2023-02-23T01:19:07.181Z,50.10
2023-02-23T01:21:36.193Z,53.30
2023-02-23T01:24:04.982Z,50.53
2023-02-23T01:26:37.084Z,55.60
2023-02-23T01:29:08.861Z,57.40
2023-02-23T01:31:37.487Z,52.97
2023-02-23T01:34:06.159Z,50.80
2023-02-23T01:36:34.819Z,53.67
2023-02-23T01:39:05.989Z,53.20
2023-02-23T01:41:33.978Z,48.63
2023-02-23T01:44:21.728Z,55.23
2023-02-23T01:46:50.285Z,51.13
2023-02-23T01:49:20.799Z,47.47
2023-02-23T01:51:53.559Z,54.47
2023-02-23T01:54:22.892Z,50.60
2023-02-23T01:56:58.719Z,52.03
2023-02-23T01:59:34.220Z,56.33
2023-02-23T02:02:05.231Z,49.80
2023-02-23T02:04:43.639Z,51.57
2023-02-23T02:07:15.072Z,53.07
2023-02-23T02:10:03.257Z,49.73
2023-02-23T02:12:30.792Z,51.20
2023-02-23T02:14:59.687Z,53.40
2023-02-23T02:17:41.933Z,49.70
2023-02-23T02:20:33.625Z,50.50
2023-02-23T02:23:19.992Z,49.53
2023-02-23T02:26:09.918Z,49.97
2023-02-23T02:28:52.323Z,46.33
2023-02-23T02:31:38.534Z,53.33
2023-02-23T02:34:26.508Z,57.80
2023-02-23T02:37:24.950Z,52.40
2023-02-23T02:40:17.701Z,50.57
2023-02-23T02:43:01.491Z,51.67
2023-02-23T02:45:39.652Z,62.27
2023-02-23T02:48:31.555Z,52.57
2023-02-23T02:51:25.200Z,46.10
2023-02-23T02:54:12.877Z,42.93
2023-02-23T02:56:41.975Z,53.40
2023-02-23T02:59:35.745Z,44.70
2023-02-23T03:02:22.612Z,43.33
2023-02-23T03:05:08.696Z,44.03
2023-02-23T03:07:59.597Z,53.20
2023-02-23T03:11:12.518Z,58.23
2023-02-23T03:14:36.085Z,45.47
2023-02-23T03:17:30.709Z,43.97
2023-02-23T03:20:18.397Z,36.07
2023-02-23T03:23:12.804Z,46.67
2023-02-23T03:26:18.440Z,54.30
2023-02-23T03:29:18.368Z,48.03
2023-02-23T03:32:10.191Z,45.30
2023-02-23T03:35:02.646Z,40.43
2023-02-23T03:38:00.879Z,46.13
2023-02-23T03:40:48.744Z,43.63
2023-02-23T03:43:37.119Z,42.27
2023-02-23T03:46:25.539Z,43.83
2023-02-23T03:49:13.110Z,33.57
2023-02-23T03:52:01.713Z,34.37
2023-02-23T03:54:52.891Z,40.87
2023-02-23T03:57:40.042Z,40.07
2023-02-23T04:00:28.594Z,39.63
2023-02-23T04:03:16.614Z,37.00
2023-02-23T04:06:03.720Z,35.00
2023-02-23T04:08:53.678Z,39.13
2023-02-23T04:11:47.335Z,38.53
2023-02-23T04:14:17.788Z,33.00
2023-02-23T04:16:45.863Z,41.43
2023-02-23T04:19:13.351Z,41.27
2023-02-23T04:21:40.838Z,46.10
2023-02-23T04:24:08.318Z,50.00
2023-02-23T04:26:35.776Z,39.80
2023-02-23T04:29:03.206Z,40.80
2023-02-23T04:31:30.752Z,42.67
2023-02-23T04:33:58.209Z,46.40
2023-02-23T04:36:26.941Z,43.43
2023-02-23T04:38:54.371Z,42.73
2023-02-23T04:41:21.828Z,49.03
2023-02-23T04:43:49.320Z,40.77
2023-02-23T04:46:16.848Z,42.77
2023-02-23T04:48:44.362Z,40.07
2023-02-23T04:51:11.994Z,40.07
2023-02-23T04:53:39.692Z,37.67
2023-02-23T04:56:07.745Z,37.53
2023-02-23T04:58:35.153Z,38.00
2023-02-23T05:01:06.739Z,46.53
2023-02-23T05:03:34.584Z,45.77
2023-02-23T05:06:02.101Z,43.30
2023-02-23T05:08:29.537Z,43.60
2023-02-23T05:10:57.013Z,46.07
2023-02-23T05:13:24.558Z,51.93
2023-02-23T05:15:52.107Z,56.00
2023-02-23T05:18:19.569Z,57.50
2023-02-23T05:20:47.734Z,54.23
2023-02-23T05:23:15.200Z,48.87
2023-02-23T05:25:42.639Z,45.77
2023-02-23T05:28:10.710Z,46.87
2023-02-23T05:30:38.259Z,45.00
2023-02-23T05:33:05.799Z,41.33
2023-02-23T05:35:33.198Z,41.17
2023-02-23T05:38:00.648Z,40.90
2023-02-23T05:40:28.098Z,43.40
2023-02-23T05:42:59.528Z,45.63
2023-02-23T05:45:27.280Z,44.17
2023-02-23T05:47:54.740Z,41.70
2023-02-23T05:50:22.221Z,49.73
2023-02-23T05:52:50.573Z,48.03
2023-02-23T05:55:18.113Z,42.60
2023-02-23T05:57:45.694Z,57.43
2023-02-23T06:00:16.230Z,49.83
2023-02-23T06:02:43.699Z,53.27
2023-02-23T06:05:11.983Z,57.87
2023-02-23T06:07:39.524Z,50.83
2023-02-23T06:10:07.511Z,42.50
2023-02-23T06:12:35.037Z,40.53
2023-02-23T06:15:02.442Z,49.97
2023-02-23T06:17:30.924Z,45.60
2023-02-23T06:19:59.817Z,47.33
2023-02-23T06:22:27.260Z,50.70
2023-02-23T06:24:54.760Z,48.17
2023-02-23T06:27:22.220Z,53.27
2023-02-23T06:29:49.677Z,46.20
2023-02-23T06:32:17.261Z,54.70
2023-02-23T06:34:48.771Z,51.40
2023-02-23T06:37:17.682Z,47.80
2023-02-23T06:39:45.095Z,49.03
2023-02-23T06:42:12.581Z,70.27
2023-02-23T06:44:40.214Z,50.13
2023-02-23T06:47:07.683Z,56.90
2023-02-23T06:49:35.282Z,53.07
2023-02-23T06:52:02.724Z,50.80
2023-02-23T06:54:30.450Z,42.53
2023-02-23T06:56:57.931Z,55.33
2023-02-23T06:59:25.363Z,50.57
2023-02-23T07:01:52.938Z,59.93
2023-02-23T07:04:20.398Z,43.90
2023-02-23T07:06:48.476Z,61.50
2023-02-23T07:09:15.932Z,59.03
2023-02-23T07:11:45.230Z,57.27
2023-02-23T07:14:15.348Z,47.53
2023-02-23T07:16:49.544Z,47.43
2023-02-23T07:19:17.012Z,40.33
2023-02-23T07:21:44.936Z,45.90
2023-02-23T07:24:12.447Z,48.67
2023-02-23T07:26:43.701Z,40.30
2023-02-23T07:29:12.754Z,72.53
2023-02-23T07:31:40.725Z,53.93
2023-02-23T07:34:08.597Z,45.60
2023-02-23T07:36:36.374Z,46.17
2023-02-23T07:39:05.181Z,53.17
2023-02-23T07:41:33.043Z,51.33
2023-02-23T07:44:01.350Z,48.97
2023-02-23T07:46:28.785Z,58.23
2023-02-23T07:48:56.349Z,47.80
2023-02-23T07:51:23.787Z,46.93
2023-02-23T07:53:51.320Z,40.53
2023-02-23T07:56:18.757Z,37.60
2023-02-23T07:58:46.267Z,46.37
2023-02-23T08:01:13.980Z,48.77
2023-02-23T08:03:41.600Z,42.57
2023-02-23T08:06:09.093Z,65.37
2023-02-23T08:08:36.970Z,46.27
2023-02-23T08:11:05.238Z,41.00
2023-02-23T08:13:34.140Z,51.23
2023-02-23T08:16:01.724Z,40.23
2023-02-23T08:18:29.291Z,46.90
2023-02-23T08:21:00.595Z,52.67
2023-02-23T08:23:30.345Z,33.83
2023-02-23T08:25:59.706Z,34.73
2023-02-23T08:28:27.749Z,41.30
2023-02-23T08:30:55.791Z,40.40
2023-02-23T08:33:23.664Z,47.00
2023-02-23T08:35:53.692Z,39.63
2023-02-23T08:38:21.406Z,47.77
2023-02-23T08:40:48.816Z,52.03
2023-02-23T08:43:16.398Z,41.73
2023-02-23T08:45:43.833Z,59.50
2023-02-23T08:48:11.295Z,52.97
2023-02-23T08:50:38.750Z,57.67
2023-02-23T08:53:07.244Z,48.27
2023-02-23T08:55:35.637Z,52.97
2023-02-23T08:58:03.190Z,44.90
2023-02-23T09:00:31.544Z,39.03
2023-02-23T09:02:59.669Z,37.50
2023-02-23T09:05:27.234Z,36.80
2023-02-23T09:07:54.725Z,35.40
2023-02-23T09:10:27.871Z,35.93
2023-02-23T09:12:55.904Z,34.57
2023-02-23T09:15:23.365Z,35.47
2023-02-23T09:17:50.833Z,30.87
2023-02-23T09:20:18.799Z,36.47
2023-02-23T09:22:49.315Z,32.10
2023-02-23T09:25:22.727Z,34.77
2023-02-23T09:27:51.282Z,34.23
2023-02-23T09:30:20.731Z,30.60
2023-02-23T09:32:50.811Z,28.57
2023-02-23T09:35:18.874Z,26.83
2023-02-23T09:37:48.375Z,28.53
2023-02-23T09:40:20.077Z,29.03
2023-02-23T09:43:05.556Z,25.60
2023-02-23T09:45:48.814Z,27.90
2023-02-23T09:48:20.945Z,28.40
2023-02-23T09:50:52.167Z,29.67
2023-02-23T09:53:25.524Z,24.23
2023-02-23T09:55:54.392Z,30.47
2023-02-23T09:58:26.215Z,28.43
2023-02-23T10:01:22.318Z,34.83
2023-02-23T10:03:57.958Z,28.53
2023-02-23T10:06:25.814Z,28.47
2023-02-23T10:08:58.728Z,32.80
2023-02-23T10:11:46.479Z,29.07
2023-02-23T10:14:35.048Z,34.30
2023-02-23T10:17:10.844Z,33.97
2023-02-23T10:19:57.470Z,27.17
2023-02-23T10:22:25.517Z,25.33
2023-02-23T10:25:01.454Z,27.90
2023-02-23T10:27:38.996Z,26.50
2023-02-23T10:30:17.157Z,29.43
2023-02-23T10:32:50.198Z,31.80
2023-02-23T10:35:20.565Z,37.33
2023-02-23T10:37:48.528Z,30.23
2023-02-23T10:40:35.805Z,32.33
2023-02-23T10:43:03.623Z,38.70
2023-02-23T10:45:35.191Z,35.37
2023-02-23T10:48:05.234Z,35.03
2023-02-23T10:50:33.339Z,33.37
2023-02-23T10:53:40.199Z,33.47
2023-02-23T10:56:15.636Z,31.20
2023-02-23T10:58:53.552Z,32.13
2023-02-23T11:01:41.921Z,36.77
2023-02-23T11:04:35.137Z,35.30
2023-02-23T11:07:29.714Z,29.13
2023-02-23T11:09:57.944Z,31.40
2023-02-23T11:12:28.575Z,32.40
2023-02-23T11:14:57.435Z,35.30
2023-02-23T11:17:33.197Z,37.93
2023-02-23T11:20:02.749Z,33.23
2023-02-23T11:22:35.484Z,34.37
2023-02-23T11:25:12.775Z,37.73
2023-02-23T11:27:40.248Z,36.90
2023-02-23T11:30:08.249Z,39.13
2023-02-23T11:32:43.354Z,34.13
2023-02-23T11:35:22.673Z,39.90
2023-02-23T11:37:50.684Z,37.33
2023-02-23T11:40:22.692Z,34.80
2023-02-23T11:43:09.960Z,36.27
2023-02-23T11:45:46.186Z,36.93
2023-02-23T11:48:46.846Z,29.00
2023-02-23T11:51:23.252Z,34.97
2023-02-23T11:53:50.803Z,30.23
2023-02-23T11:56:24.012Z,31.40
2023-02-23T11:58:53.955Z,25.90
2023-02-23T12:01:36.052Z,29.63
2023-02-23T12:04:03.948Z,27.57
2023-02-23T12:06:39.111Z,24.63
2023-02-23T12:09:37.031Z,20.10
2023-02-23T12:12:07.254Z,15.83
2023-02-23T12:14:40.013Z,25.77
2023-02-23T12:17:19.379Z,22.93
2023-02-23T12:20:15.607Z,20.37
2023-02-23T12:22:45.858Z,17.23
2023-02-23T12:25:45.542Z,25.07
2023-02-23T12:28:19.250Z,22.83
2023-02-23T12:30:57.759Z,19.43
2023-02-23T12:33:34.036Z,18.60
2023-02-23T12:36:05.072Z,25.20
2023-02-23T12:38:48.965Z,19.17
2023-02-23T12:41:40.609Z,29.37
2023-02-23T12:44:26.776Z,25.73
2023-02-23T12:46:55.803Z,25.90
2023-02-23T12:49:30.968Z,26.63
2023-02-23T12:52:08.636Z,20.40
2023-02-23T12:54:37.249Z,22.83
2023-02-23T12:57:13.792Z,19.23
2023-02-23T12:59:49.960Z,14.67
2023-02-23T13:02:40.379Z,20.80
2023-02-23T13:05:17.256Z,21.37
2023-02-23T13:07:53.953Z,16.57
2023-02-23T13:10:43.692Z,26.93
2023-02-23T13:13:34.441Z,16.37
2023-02-23T13:16:10.414Z,21.53
2023-02-23T13:19:07.277Z,24.30
2023-02-23T13:21:40.837Z,22.63
2023-02-23T13:24:13.128Z,20.53
2023-02-23T13:26:56.691Z,22.50
2023-02-23T13:29:45.953Z,23.23
2023-02-23T13:32:21.369Z,33.27
2023-02-23T13:35:00.697Z,23.60
2023-02-23T13:37:35.115Z,26.97
2023-02-23T13:40:08.622Z,28.37
2023-02-23T13:42:58.760Z,31.47
2023-02-23T13:46:01.981Z,23.97
2023-02-23T13:48:58.379Z,22.87
2023-02-23T13:51:44.656Z,26.63
2023-02-23T13:54:30.197Z,27.17
2023-02-23T13:56:59.360Z,27.43
2023-02-23T13:59:29.703Z,24.43
2023-02-23T14:01:57.926Z,22.20
2023-02-23T14:04:29.383Z,27.37
2023-02-23T14:07:16.826Z,25.07
2023-02-23T14:10:06.583Z,25.40
2023-02-23T14:12:39.950Z,18.03
2023-02-23T14:15:30.572Z,20.23
2023-02-23T14:17:59.356Z,18.63
2023-02-23T14:20:45.613Z,17.60
2023-02-23T14:23:42.681Z,26.43
2023-02-23T14:26:12.386Z,20.53
2023-02-23T14:28:41.280Z,16.93
2023-02-23T14:31:27.248Z,22.87
2023-02-23T14:33:58.671Z,20.83
2023-02-23T14:36:30.354Z,21.37
2023-02-23T14:39:02.105Z,15.73
2023-02-23T14:42:02.162Z,20.27
2023-02-23T14:44:36.293Z,18.93
2023-02-23T14:47:04.737Z,22.63
2023-02-23T14:49:35.168Z,20.60
2023-02-23T14:52:10.429Z,16.97
2023-02-23T14:54:41.474Z,14.60
2023-02-23T14:57:20.310Z,15.40
2023-02-23T14:59:53.418Z,21.50
2023-02-23T15:02:22.726Z,13.53
2023-02-23T15:04:50.247Z,14.67
2023-02-23T15:07:25.329Z,16.37
2023-02-23T15:09:56.820Z,14.43
2023-02-23T15:12:28.481Z,23.10
2023-02-23T15:15:01.847Z,20.00
2023-02-23T15:17:32.077Z,18.07
2023-02-23T15:20:14.755Z,19.73
2023-02-23T15:22:44.661Z,13.73
2023-02-23T15:25:19.824Z,13.43
2023-02-23T15:27:48.205Z,15.17
2023-02-23T15:30:23.763Z,15.33
2023-02-23T15:33:14.457Z,14.73
2023-02-23T15:35:47.554Z,12.50
2023-02-23T15:38:44.302Z,11.80
2023-02-23T15:41:15.775Z,18.77
2023-02-23T15:43:43.905Z,15.20
2023-02-23T15:46:15.329Z,16.83
2023-02-23T15:48:49.186Z,19.70
2023-02-23T15:51:31.969Z,18.63
2023-02-23T15:54:00.575Z,15.67
2023-02-23T15:56:29.557Z,18.33
2023-02-23T15:58:59.152Z,22.13
2023-02-23T16:01:30.775Z,22.47
2023-02-23T16:04:09.365Z,19.77
2023-02-23T16:06:44.476Z,19.37
2023-02-23T16:09:24.122Z,17.37
2023-02-23T16:11:53.412Z,18.27
2023-02-23T16:14:21.823Z,17.20
2023-02-23T16:17:08.432Z,15.93
2023-02-23T16:19:41.711Z,16.10
2023-02-23T16:22:15.549Z,14.03
2023-02-23T16:24:43.160Z,14.73
2023-02-23T16:27:11.870Z,16.90
2023-02-23T16:29:43.460Z,21.60
2023-02-23T16:32:24.933Z,16.23
2023-02-23T16:35:02.413Z,16.83
2023-02-23T16:37:29.924Z,14.70
2023-02-23T16:39:57.378Z,18.30
2023-02-23T16:42:35.320Z,14.13
2023-02-23T16:45:02.889Z,14.93
2023-02-23T16:47:38.124Z,17.67
2023-02-23T16:50:20.931Z,15.87
2023-02-23T16:52:53.663Z,13.67
2023-02-23T16:55:26.006Z,17.50
2023-02-23T16:57:55.810Z,17.17
2023-02-23T17:00:24.943Z,14.47
2023-02-23T17:02:52.802Z,18.30
2023-02-23T17:05:21.530Z,16.83
2023-02-23T17:07:48.984Z,14.77
2023-02-23T17:10:25.153Z,15.60
2023-02-23T17:12:57.285Z,17.60
2023-02-23T17:15:27.505Z,17.10
2023-02-23T17:17:56.274Z,18.20
2023-02-23T17:20:26.059Z,20.03
2023-02-23T17:22:57.314Z,16.17
2023-02-23T17:25:26.625Z,15.33
2023-02-23T17:27:54.992Z,22.00
2023-02-23T17:30:22.563Z,17.03
2023-02-23T17:32:50.711Z,14.43
2023-02-23T17:35:18.617Z,18.30
2023-02-23T17:37:46.068Z,19.97
2023-02-23T17:40:18.566Z,13.70
2023-02-23T17:42:46.057Z,22.53
2023-02-23T17:45:13.605Z,15.07
2023-02-23T17:47:42.810Z,26.67
2023-02-23T17:50:10.877Z,20.67
2023-02-23T17:52:38.558Z,23.47
2023-02-23T17:55:06.250Z,17.83
2023-02-23T17:57:33.774Z,17.90
2023-02-23T18:00:01.359Z,20.40
2023-02-23T18:02:40.145Z,18.43
2023-02-23T18:05:08.669Z,20.67
2023-02-23T18:07:36.292Z,18.33
2023-02-23T18:10:04.489Z,25.20
2023-02-23T18:12:32.018Z,14.80
2023-02-23T18:15:00.467Z,19.70
2023-02-23T18:17:28.148Z,16.93
2023-02-23T18:19:55.816Z,20.97
2023-02-23T18:22:23.227Z,22.60
2023-02-23T18:24:50.795Z,24.47
2023-02-23T18:27:18.291Z,16.47
2023-02-23T18:29:45.827Z,18.17
2023-02-23T18:32:13.478Z,20.03
2023-02-23T18:34:41.353Z,23.90
2023-02-23T18:37:10.344Z,22.33
2023-02-23T18:39:38.311Z,17.83
2023-02-23T18:42:05.992Z,26.03
2023-02-23T18:44:35.184Z,21.00
2023-02-23T18:47:02.841Z,21.97
2023-02-23T18:49:30.397Z,18.73
2023-02-23T18:51:59.622Z,19.73
2023-02-23T18:54:28.020Z,22.97
2023-02-23T18:56:56.005Z,23.30
2023-02-23T18:59:23.538Z,20.23
2023-02-23T19:01:50.997Z,21.17
2023-02-23T19:04:18.657Z,18.83
2023-02-23T19:06:47.409Z,18.53
2023-02-23T19:09:18.447Z,18.43
2023-02-23T19:11:46.127Z,18.73
2023-02-23T19:14:16.142Z,22.20
2023-02-23T19:16:44.344Z,20.23
2023-02-23T19:19:12.132Z,17.90
2023-02-23T19:21:39.595Z,28.10
2023-02-23T19:24:07.451Z,21.57
2023-02-23T19:26:35.178Z,16.10
2023-02-23T19:29:02.655Z,19.13
2023-02-23T19:31:30.389Z,21.27
2023-02-23T19:33:58.482Z,17.93
2023-02-23T19:36:30.741Z,18.93
2023-02-23T19:39:06.324Z,21.50
2023-02-23T19:41:34.622Z,24.60
2023-02-23T19:44:02.029Z,23.17
2023-02-23T19:46:30.078Z,17.13
2023-02-23T19:48:57.692Z,20.63
2023-02-23T19:51:25.369Z,20.53
2023-02-23T19:53:56.635Z,21.90
2023-02-23T19:56:25.094Z,18.53
2023-02-23T19:58:53.121Z,22.77
2023-02-23T20:01:22.141Z,18.60
2023-02-23T20:04:01.975Z,21.83
2023-02-23T20:06:32.149Z,23.43
2023-02-23T20:09:00.429Z,21.80
2023-02-23T20:11:28.268Z,26.90
2023-02-23T20:13:57.473Z,17.03
2023-02-23T20:16:29.731Z,23.63
2023-02-23T20:18:58.164Z,20.50
2023-02-23T20:21:26.916Z,31.13
2023-02-23T20:23:55.919Z,23.47
2023-02-23T20:26:26.479Z,15.33
2023-02-23T20:28:57.697Z,23.70
2023-02-23T20:31:33.516Z,23.00
2023-02-23T20:34:02.458Z,21.13
2023-02-23T20:36:29.961Z,27.00
2023-02-23T20:38:57.461Z,17.90
2023-02-23T20:41:28.120Z,22.47
2023-02-23T20:43:56.187Z,23.47
2023-02-23T20:46:23.704Z,19.43
2023-02-23T20:48:51.324Z,20.50
2023-02-23T20:51:19.638Z,20.43
2023-02-23T20:53:48.298Z,30.63
2023-02-23T20:56:17.277Z,25.03
2023-02-23T20:58:45.147Z,25.67
2023-02-23T21:01:17.017Z,26.67
2023-02-23T21:03:44.854Z,31.80
2023-02-23T21:06:12.376Z,26.60
2023-02-23T21:08:42.318Z,26.93
2023-02-23T21:11:09.901Z,20.77
2023-02-23T21:13:37.375Z,21.33
2023-02-23T21:16:05.217Z,30.27
2023-02-23T21:18:32.829Z,23.30
2023-02-23T21:21:09.413Z,25.57
2023-02-23T21:23:43.439Z,21.33
2023-02-23T21:26:14.363Z,23.73
2023-02-23T21:28:46.595Z,26.03
2023-02-23T21:31:15.554Z,25.40
2023-02-23T21:33:44.174Z,22.03
2023-02-23T21:36:12.745Z,27.60
2023-02-23T21:38:41.258Z,26.57
2023-02-23T21:41:09.475Z,26.70
2023-02-23T21:43:37.528Z,26.60
2023-02-23T21:46:12.721Z,28.37
2023-02-23T21:48:40.452Z,26.57
2023-02-23T21:51:09.367Z,25.30
2023-02-23T21:53:37.630Z,25.20
2023-02-23T21:56:11.951Z,26.70
2023-02-23T21:58:40.067Z,28.13
2023-02-23T22:01:11.594Z,26.70
2023-02-23T22:03:39.161Z,29.73
2023-02-23T22:06:06.855Z,31.13
2023-02-23T22:08:36.414Z,26.50
2023-02-23T22:11:11.223Z,32.27
2023-02-23T22:13:38.749Z,30.37
2023-02-23T22:16:07.176Z,26.87
2023-02-23T22:18:34.718Z,24.70
2023-02-23T22:21:04.652Z,28.83
2023-02-23T22:23:32.135Z,37.73
2023-02-23T22:26:02.977Z,30.27
2023-02-23T22:28:30.656Z,31.50
2023-02-23T22:30:58.171Z,27.53
2023-02-23T22:33:25.731Z,29.87
2023-02-23T22:35:53.214Z,33.47
2023-02-23T22:38:20.864Z,35.93
2023-02-23T22:40:48.563Z,23.53
2023-02-23T22:43:16.565Z,31.50
2023-02-23T22:45:44.388Z,30.40
2023-02-23T22:48:11.944Z,29.30
2023-02-23T22:50:39.398Z,24.87
2023-02-23T22:53:06.893Z,28.07
2023-02-23T22:55:35.156Z,25.57
2023-02-23T22:58:08.381Z,29.60
2023-02-23T23:00:36.276Z,25.20
2023-02-23T23:03:04.372Z,30.07
2023-02-23T23:05:37.433Z,26.10
2023-02-23T23:08:04.912Z,27.30
2023-02-23T23:10:32.404Z,24.27
2023-02-23T23:12:59.886Z,26.77
2023-02-23T23:15:27.443Z,29.80
2023-02-23T23:17:55.038Z,30.20
2023-02-23T23:20:25.642Z,34.67
2023-02-23T23:22:53.740Z,25.87
2023-02-23T23:25:23.131Z,26.27
2023-02-23T23:27:54.406Z,26.93
2023-02-23T23:30:21.913Z,28.07
2023-02-23T23:32:49.493Z,23.07
2023-02-23T23:35:20.773Z,25.60
2023-02-23T23:37:51.615Z,29.00
2023-02-23T23:40:24.411Z,22.73
2023-02-23T23:42:52.715Z,25.83
2023-02-23T23:45:24.384Z,21.53
2023-02-23T23:47:51.981Z,23.63
2023-02-23T23:50:24.416Z,24.60
2023-02-23T23:52:51.905Z,22.97
2023-02-23T23:55:19.381Z,26.27
2023-02-23T23:57:46.928Z,25.97
